sensor_id;sensor_type;location;lat;lon;timestamp;temperature;humidity
75281;HTU21D;63874;47.230;39.620;2023-04-24T00:00:16;9.44;80.57
75281;HTU21D;63874;47.230;39.620;2023-04-24T00:02:44;9.40;80.57
75281;HTU21D;63874;47.230;39.620;2023-04-24T00:05:14;9.38;80.63
75281;HTU21D;63874;47.230;39.620;2023-04-24T00:07:41;9.34;80.66
75281;HTU21D;63874;47.230;39.620;2023-04-24T00:10:07;9.32;80.72
75281;HTU21D;63874;47.230;39.620;2023-04-24T00:12:33;9.31;80.81
75281;HTU21D;63874;47.230;39.620;2023-04-24T00:15:00;9.27;80.94
75281;HTU21D;63874;47.230;39.620;2023-04-24T00:17:26;9.26;80.96
75281;HTU21D;63874;47.230;39.620;2023-04-24T00:19:52;9.24;81.05
75281;HTU21D;63874;47.230;39.620;2023-04-24T00:22:27;9.23;81.19
75281;HTU21D;63874;47.230;39.620;2023-04-24T00:24:54;9.21;81.22
75281;HTU21D;63874;47.230;39.620;2023-04-24T00:27:20;9.19;81.23
75281;HTU21D;63874;47.230;39.620;2023-04-24T00:29:45;9.24;81.38
75281;HTU21D;63874;47.230;39.620;2023-04-24T00:32:11;9.29;81.55
75281;HTU21D;63874;47.230;39.620;2023-04-24T00:34:37;9.38;81.85
75281;HTU21D;63874;47.230;39.620;2023-04-24T00:37:03;9.46;81.99
75281;HTU21D;63874;47.230;39.620;2023-04-24T00:39:29;9.56;82.19
75281;HTU21D;63874;47.230;39.620;2023-04-24T00:41:55;9.63;82.24
75281;HTU21D;63874;47.230;39.620;2023-04-24T00:44:22;9.67;82.17
75281;HTU21D;63874;47.230;39.620;2023-04-24T00:46:49;9.70;81.99
75281;HTU21D;63874;47.230;39.620;2023-04-24T00:49:21;9.71;81.91
75281;HTU21D;63874;47.230;39.620;2023-04-24T00:51:48;9.69;81.81
75281;HTU21D;63874;47.230;39.620;2023-04-24T00:54:15;9.68;81.88
75281;HTU21D;63874;47.230;39.620;2023-04-24T00:56:42;9.65;81.91
75281;HTU21D;63874;47.230;39.620;2023-04-24T00:59:09;9.61;82.01
75281;HTU21D;63874;47.230;39.620;2023-04-24T01:01:36;9.57;81.90
75281;HTU21D;63874;47.230;39.620;2023-04-24T01:04:02;9.52;81.68
75281;HTU21D;63874;47.230;39.620;2023-04-24T01:06:29;9.44;81.59
75281;HTU21D;63874;47.230;39.620;2023-04-24T01:08:58;9.37;81.50
75281;HTU21D;63874;47.230;39.620;2023-04-24T01:11:26;9.32;81.55
75281;HTU21D;63874;47.230;39.620;2023-04-24T01:13:52;9.24;81.62
75281;HTU21D;63874;47.230;39.620;2023-04-24T01:16:18;9.19;81.66
75281;HTU21D;63874;47.230;39.620;2023-04-24T01:18:46;9.14;81.68
75281;HTU21D;63874;47.230;39.620;2023-04-24T01:21:16;9.08;81.78
75281;HTU21D;63874;47.230;39.620;2023-04-24T01:23:45;9.05;81.93
75281;HTU21D;63874;47.230;39.620;2023-04-24T01:26:12;9.01;82.01
75281;HTU21D;63874;47.230;39.620;2023-04-24T01:28:38;8.96;82.12
75281;HTU21D;63874;47.230;39.620;2023-04-24T01:31:05;8.93;82.09
75281;HTU21D;63874;47.230;39.620;2023-04-24T01:33:31;8.92;82.23
75281;HTU21D;63874;47.230;39.620;2023-04-24T01:35:57;8.90;82.26
75281;HTU21D;63874;47.230;39.620;2023-04-24T01:38:23;8.93;82.50
75281;HTU21D;63874;47.230;39.620;2023-04-24T01:40:49;8.92;82.58
75281;HTU21D;63874;47.230;39.620;2023-04-24T01:43:17;8.89;82.68
75281;HTU21D;63874;47.230;39.620;2023-04-24T01:45:43;8.89;82.55
75281;HTU21D;63874;47.230;39.620;2023-04-24T01:48:09;8.86;82.52
75281;HTU21D;63874;47.230;39.620;2023-04-24T01:50:35;8.85;82.56
75281;HTU21D;63874;47.230;39.620;2023-04-24T01:53:02;8.83;82.53
75281;HTU21D;63874;47.230;39.620;2023-04-24T01:55:28;8.82;82.52
75281;HTU21D;63874;47.230;39.620;2023-04-24T01:57:55;8.81;82.49
75281;HTU21D;63874;47.230;39.620;2023-04-24T02:00:22;8.79;82.49
75281;HTU21D;63874;47.230;39.620;2023-04-24T02:02:48;8.77;82.49
75281;HTU21D;63874;47.230;39.620;2023-04-24T02:05:14;8.75;82.49
75281;HTU21D;63874;47.230;39.620;2023-04-24T02:07:39;8.74;82.56
75281;HTU21D;63874;47.230;39.620;2023-04-24T02:10:06;8.73;82.56
75281;HTU21D;63874;47.230;39.620;2023-04-24T02:12:32;8.71;82.69
75281;HTU21D;63874;47.230;39.620;2023-04-24T02:14:58;8.70;82.81
75281;HTU21D;63874;47.230;39.620;2023-04-24T02:17:24;8.70;83.00
75281;HTU21D;63874;47.230;39.620;2023-04-24T02:19:50;8.74;83.40
75281;HTU21D;63874;47.230;39.620;2023-04-24T02:22:16;8.77;83.63
75281;HTU21D;63874;47.230;39.620;2023-04-24T02:24:42;8.78;83.64
75281;HTU21D;63874;47.230;39.620;2023-04-24T02:27:07;8.80;83.66
75281;HTU21D;63874;47.230;39.620;2023-04-24T02:29:33;8.80;83.58
75281;HTU21D;63874;47.230;39.620;2023-04-24T02:31:59;8.80;83.60
75281;HTU21D;63874;47.230;39.620;2023-04-24T02:34:25;8.79;83.59
75281;HTU21D;63874;47.230;39.620;2023-04-24T02:36:51;8.79;83.54
75281;HTU21D;63874;47.230;39.620;2023-04-24T02:39:19;8.79;83.55
75281;HTU21D;63874;47.230;39.620;2023-04-24T02:41:45;8.79;83.63
75281;HTU21D;63874;47.230;39.620;2023-04-24T02:44:11;8.83;83.64
75281;HTU21D;63874;47.230;39.620;2023-04-24T02:46:37;8.86;83.61
75281;HTU21D;63874;47.230;39.620;2023-04-24T02:49:03;8.87;83.52
75281;HTU21D;63874;47.230;39.620;2023-04-24T02:51:29;8.91;83.50
75281;HTU21D;63874;47.230;39.620;2023-04-24T02:53:55;8.98;83.61
75281;HTU21D;63874;47.230;39.620;2023-04-24T02:56:21;9.03;83.59
75281;HTU21D;63874;47.230;39.620;2023-04-24T02:58:47;9.07;83.61
75281;HTU21D;63874;47.230;39.620;2023-04-24T03:01:12;9.15;83.51
75281;HTU21D;63874;47.230;39.620;2023-04-24T03:03:39;9.21;83.47
75281;HTU21D;63874;47.230;39.620;2023-04-24T03:06:05;9.25;83.38
75281;HTU21D;63874;47.230;39.620;2023-04-24T03:08:32;9.29;83.32
75281;HTU21D;63874;47.230;39.620;2023-04-24T03:10:58;9.31;83.14
75281;HTU21D;63874;47.230;39.620;2023-04-24T03:13:23;9.30;82.98
75281;HTU21D;63874;47.230;39.620;2023-04-24T03:15:49;9.32;82.96
75281;HTU21D;63874;47.230;39.620;2023-04-24T03:18:15;9.35;82.94
75281;HTU21D;63874;47.230;39.620;2023-04-24T03:20:42;9.37;82.91
75281;HTU21D;63874;47.230;39.620;2023-04-24T03:23:08;9.40;82.78
75281;HTU21D;63874;47.230;39.620;2023-04-24T03:25:35;9.44;82.65
75281;HTU21D;63874;47.230;39.620;2023-04-24T03:28:02;9.48;82.52
75281;HTU21D;63874;47.230;39.620;2023-04-24T03:30:36;9.53;82.46
75281;HTU21D;63874;47.230;39.620;2023-04-24T03:33:03;9.55;82.39
75281;HTU21D;63874;47.230;39.620;2023-04-24T03:35:32;9.61;82.30
75281;HTU21D;63874;47.230;39.620;2023-04-24T03:38:01;9.65;82.17
75281;HTU21D;63874;47.230;39.620;2023-04-24T03:40:49;9.68;82.14
75281;HTU21D;63874;47.230;39.620;2023-04-24T03:43:35;9.74;82.09
75281;HTU21D;63874;47.230;39.620;2023-04-24T03:46:01;9.76;82.10
75281;HTU21D;63874;47.230;39.620;2023-04-24T03:48:29;9.81;82.13
75281;HTU21D;63874;47.230;39.620;2023-04-24T03:50:55;9.89;82.14
75281;HTU21D;63874;47.230;39.620;2023-04-24T03:53:21;9.98;81.97
75281;HTU21D;63874;47.230;39.620;2023-04-24T03:55:48;10.06;81.81
75281;HTU21D;63874;47.230;39.620;2023-04-24T03:58:14;10.14;81.55
75281;HTU21D;63874;47.230;39.620;2023-04-24T04:00:40;10.24;81.42
75281;HTU21D;63874;47.230;39.620;2023-04-24T04:03:29;10.33;81.33
75281;HTU21D;63874;47.230;39.620;2023-04-24T04:05:55;10.41;81.25
75281;HTU21D;63874;47.230;39.620;2023-04-24T04:08:21;10.49;81.06
75281;HTU21D;63874;47.230;39.620;2023-04-24T04:10:47;10.58;80.98
75281;HTU21D;63874;47.230;39.620;2023-04-24T04:13:13;10.68;80.81
75281;HTU21D;63874;47.230;39.620;2023-04-24T04:15:40;10.78;80.72
75281;HTU21D;63874;47.230;39.620;2023-04-24T04:18:06;10.90;80.48
75281;HTU21D;63874;47.230;39.620;2023-04-24T04:20:32;11.02;80.24
75281;HTU21D;63874;47.230;39.620;2023-04-24T04:22:59;11.12;79.86
75281;HTU21D;63874;47.230;39.620;2023-04-24T04:25:36;11.20;79.36
75281;HTU21D;63874;47.230;39.620;2023-04-24T04:28:03;11.26;79.12
75281;HTU21D;63874;47.230;39.620;2023-04-24T04:30:29;11.32;78.97
75281;HTU21D;63874;47.230;39.620;2023-04-24T04:33:01;11.38;78.95
75281;HTU21D;63874;47.230;39.620;2023-04-24T04:35:28;11.49;78.81
75281;HTU21D;63874;47.230;39.620;2023-04-24T04:37:55;11.57;78.69
75281;HTU21D;63874;47.230;39.620;2023-04-24T04:41:02;11.71;78.57
75281;HTU21D;63874;47.230;39.620;2023-04-24T04:43:31;11.85;78.37
75281;HTU21D;63874;47.230;39.620;2023-04-24T04:45:58;12.04;78.10
75281;HTU21D;63874;47.230;39.620;2023-04-24T04:48:41;12.30;77.44
75281;HTU21D;63874;47.230;39.620;2023-04-24T04:51:07;12.52;76.87
75281;HTU21D;63874;47.230;39.620;2023-04-24T04:53:33;12.80;76.42
75281;HTU21D;63874;47.230;39.620;2023-04-24T04:56:00;13.18;75.83
75281;HTU21D;63874;47.230;39.620;2023-04-24T04:58:32;13.38;74.86
75281;HTU21D;63874;47.230;39.620;2023-04-24T05:01:00;13.46;74.29
75281;HTU21D;63874;47.230;39.620;2023-04-24T05:03:34;13.48;74.22
75281;HTU21D;63874;47.230;39.620;2023-04-24T05:06:08;13.52;74.02
75281;HTU21D;63874;47.230;39.620;2023-04-24T05:08:39;13.48;73.41
75281;HTU21D;63874;47.230;39.620;2023-04-24T05:11:08;13.38;73.15
75281;HTU21D;63874;47.230;39.620;2023-04-24T05:13:35;13.25;73.70
75281;HTU21D;63874;47.230;39.620;2023-04-24T05:16:03;13.22;74.03
75281;HTU21D;63874;47.230;39.620;2023-04-24T05:18:30;13.34;74.18
75281;HTU21D;63874;47.230;39.620;2023-04-24T05:20:56;13.59;74.04
75281;HTU21D;63874;47.230;39.620;2023-04-24T05:23:23;13.82;73.31
75281;HTU21D;63874;47.230;39.620;2023-04-24T05:25:52;13.99;72.92
75281;HTU21D;63874;47.230;39.620;2023-04-24T05:28:19;14.17;73.05
75281;HTU21D;63874;47.230;39.620;2023-04-24T05:30:55;14.38;72.96
75281;HTU21D;63874;47.230;39.620;2023-04-24T05:33:23;14.55;72.32
75281;HTU21D;63874;47.230;39.620;2023-04-24T05:35:49;14.64;72.16
75281;HTU21D;63874;47.230;39.620;2023-04-24T05:38:15;14.74;72.19
75281;HTU21D;63874;47.230;39.620;2023-04-24T05:40:43;14.91;72.02
75281;HTU21D;63874;47.230;39.620;2023-04-24T05:43:09;15.08;71.98
75281;HTU21D;63874;47.230;39.620;2023-04-24T05:45:36;15.29;71.67
75281;HTU21D;63874;47.230;39.620;2023-04-24T05:48:02;15.48;71.22
75281;HTU21D;63874;47.230;39.620;2023-04-24T05:50:28;15.61;70.13
75281;HTU21D;63874;47.230;39.620;2023-04-24T05:52:54;15.62;69.86
75281;HTU21D;63874;47.230;39.620;2023-04-24T05:55:26;15.53;69.16
75281;HTU21D;63874;47.230;39.620;2023-04-24T05:57:53;15.43;69.69
75281;HTU21D;63874;47.230;39.620;2023-04-24T06:00:19;15.41;69.78
75281;HTU21D;63874;47.230;39.620;2023-04-24T06:02:53;15.44;69.97
75281;HTU21D;63874;47.230;39.620;2023-04-24T06:05:21;15.53;69.71
75281;HTU21D;63874;47.230;39.620;2023-04-24T06:07:48;15.57;69.47
75281;HTU21D;63874;47.230;39.620;2023-04-24T06:10:14;15.62;68.64
75281;HTU21D;63874;47.230;39.620;2023-04-24T06:12:43;15.67;68.00
75281;HTU21D;63874;47.230;39.620;2023-04-24T06:15:16;15.73;68.58
75281;HTU21D;63874;47.230;39.620;2023-04-24T06:17:55;15.83;68.67
75281;HTU21D;63874;47.230;39.620;2023-04-24T06:20:22;15.92;68.45
75281;HTU21D;63874;47.230;39.620;2023-04-24T06:22:47;16.02;68.11
75281;HTU21D;63874;47.230;39.620;2023-04-24T06:25:13;16.12;67.80
75281;HTU21D;63874;47.230;39.620;2023-04-24T06:27:39;16.27;67.44
75281;HTU21D;63874;47.230;39.620;2023-04-24T06:30:07;16.49;67.15
75281;HTU21D;63874;47.230;39.620;2023-04-24T06:32:33;16.67;66.93
75281;HTU21D;63874;47.230;39.620;2023-04-24T06:34:59;16.88;65.37
75281;HTU21D;63874;47.230;39.620;2023-04-24T06:37:25;17.06;64.80
75281;HTU21D;63874;47.230;39.620;2023-04-24T06:39:51;17.19;64.15
75281;HTU21D;63874;47.230;39.620;2023-04-24T06:42:17;17.34;64.18
75281;HTU21D;63874;47.230;39.620;2023-04-24T06:44:43;17.53;63.63
75281;HTU21D;63874;47.230;39.620;2023-04-24T06:47:10;17.69;62.46
75281;HTU21D;63874;47.230;39.620;2023-04-24T06:49:37;17.81;62.79
75281;HTU21D;63874;47.230;39.620;2023-04-24T06:52:04;17.95;62.15
75281;HTU21D;63874;47.230;39.620;2023-04-24T06:54:30;18.10;61.86
75281;HTU21D;63874;47.230;39.620;2023-04-24T06:56:59;18.21;61.34
75281;HTU21D;63874;47.230;39.620;2023-04-24T06:59:29;18.19;59.72
75281;HTU21D;63874;47.230;39.620;2023-04-24T07:01:56;18.08;60.22
75281;HTU21D;63874;47.230;39.620;2023-04-24T07:04:22;18.18;60.41
75281;HTU21D;63874;47.230;39.620;2023-04-24T07:06:48;18.27;59.32
75281;HTU21D;63874;47.230;39.620;2023-04-24T07:09:19;18.32;58.92
75281;HTU21D;63874;47.230;39.620;2023-04-24T07:11:45;18.29;58.58
75281;HTU21D;63874;47.230;39.620;2023-04-24T07:14:12;18.29;59.25
75281;HTU21D;63874;47.230;39.620;2023-04-24T07:16:38;18.34;59.03
75281;HTU21D;63874;47.230;39.620;2023-04-24T07:19:04;18.32;58.71
75281;HTU21D;63874;47.230;39.620;2023-04-24T07:21:30;18.36;59.01
75281;HTU21D;63874;47.230;39.620;2023-04-24T07:23:59;18.47;58.41
75281;HTU21D;63874;47.230;39.620;2023-04-24T07:26:26;18.52;57.69
75281;HTU21D;63874;47.230;39.620;2023-04-24T07:28:52;18.54;57.51
75281;HTU21D;63874;47.230;39.620;2023-04-24T07:31:18;18.52;57.26
75281;HTU21D;63874;47.230;39.620;2023-04-24T07:33:44;18.51;57.49
75281;HTU21D;63874;47.230;39.620;2023-04-24T07:36:11;18.50;56.97
75281;HTU21D;63874;47.230;39.620;2023-04-24T07:38:50;18.46;56.69
75281;HTU21D;63874;47.230;39.620;2023-04-24T07:41:16;18.35;56.93
75281;HTU21D;63874;47.230;39.620;2023-04-24T07:43:42;18.26;57.01
75281;HTU21D;63874;47.230;39.620;2023-04-24T07:46:08;18.15;57.13
75281;HTU21D;63874;47.230;39.620;2023-04-24T07:48:34;18.19;57.02
75281;HTU21D;63874;47.230;39.620;2023-04-24T07:51:00;18.22;57.45
75281;HTU21D;63874;47.230;39.620;2023-04-24T07:53:26;18.19;57.59
75281;HTU21D;63874;47.230;39.620;2023-04-24T07:55:54;18.08;57.63
75281;HTU21D;63874;47.230;39.620;2023-04-24T07:58:20;17.96;58.06
75281;HTU21D;63874;47.230;39.620;2023-04-24T08:00:46;17.94;58.54
75281;HTU21D;63874;47.230;39.620;2023-04-24T08:03:12;17.99;58.54
75281;HTU21D;63874;47.230;39.620;2023-04-24T08:05:38;18.12;58.64
75281;HTU21D;63874;47.230;39.620;2023-04-24T08:08:04;18.33;58.13
75281;HTU21D;63874;47.230;39.620;2023-04-24T08:10:30;18.38;57.45
75281;HTU21D;63874;47.230;39.620;2023-04-24T08:12:56;18.40;57.47
75281;HTU21D;63874;47.230;39.620;2023-04-24T08:15:22;18.42;57.62
75281;HTU21D;63874;47.230;39.620;2023-04-24T08:17:47;18.48;57.61
75281;HTU21D;63874;47.230;39.620;2023-04-24T08:20:13;18.58;57.44
75281;HTU21D;63874;47.230;39.620;2023-04-24T08:22:40;18.71;57.00
75281;HTU21D;63874;47.230;39.620;2023-04-24T08:25:06;18.87;56.11
75281;HTU21D;63874;47.230;39.620;2023-04-24T08:27:32;19.01;55.68
75281;HTU21D;63874;47.230;39.620;2023-04-24T08:29:58;19.22;55.78
75281;HTU21D;63874;47.230;39.620;2023-04-24T08:32:25;19.45;55.52
75281;HTU21D;63874;47.230;39.620;2023-04-24T08:34:59;19.73;55.26
75281;HTU21D;63874;47.230;39.620;2023-04-24T08:37:26;20.00;53.99
75281;HTU21D;63874;47.230;39.620;2023-04-24T08:39:53;20.06;53.63
75281;HTU21D;63874;47.230;39.620;2023-04-24T08:42:21;20.22;54.07
75281;HTU21D;63874;47.230;39.620;2023-04-24T08:44:49;20.43;53.45
75281;HTU21D;63874;47.230;39.620;2023-04-24T08:47:15;20.61;52.76
75281;HTU21D;63874;47.230;39.620;2023-04-24T08:49:42;20.72;52.50
75281;HTU21D;63874;47.230;39.620;2023-04-24T08:52:08;20.86;52.04
75281;HTU21D;63874;47.230;39.620;2023-04-24T08:54:37;20.93;51.64
75281;HTU21D;63874;47.230;39.620;2023-04-24T08:57:04;20.89;51.75
75281;HTU21D;63874;47.230;39.620;2023-04-24T08:59:33;20.72;52.10
75281;HTU21D;63874;47.230;39.620;2023-04-24T09:02:02;20.44;52.78
75281;HTU21D;63874;47.230;39.620;2023-04-24T09:04:30;20.19;53.49
75281;HTU21D;63874;47.230;39.620;2023-04-24T09:06:57;20.01;53.68
75281;HTU21D;63874;47.230;39.620;2023-04-24T09:09:24;19.95;54.16
75281;HTU21D;63874;47.230;39.620;2023-04-24T09:11:51;19.97;54.62
75281;HTU21D;63874;47.230;39.620;2023-04-24T09:14:20;20.00;54.67
75281;HTU21D;63874;47.230;39.620;2023-04-24T09:16:46;20.06;54.55
75281;HTU21D;63874;47.230;39.620;2023-04-24T09:19:13;20.09;54.42
75281;HTU21D;63874;47.230;39.620;2023-04-24T09:21:39;20.30;54.30
75281;HTU21D;63874;47.230;39.620;2023-04-24T09:24:08;20.57;53.78
75281;HTU21D;63874;47.230;39.620;2023-04-24T09:26:40;20.83;53.46
75281;HTU21D;63874;47.230;39.620;2023-04-24T09:29:05;21.15;52.96
75281;HTU21D;63874;47.230;39.620;2023-04-24T09:31:31;21.46;51.62
75281;HTU21D;63874;47.230;39.620;2023-04-24T09:33:58;21.43;51.17
75281;HTU21D;63874;47.230;39.620;2023-04-24T09:36:35;21.24;51.62
75281;HTU21D;63874;47.230;39.620;2023-04-24T09:39:15;21.13;51.60
75281;HTU21D;63874;47.230;39.620;2023-04-24T09:41:53;20.91;51.91
75281;HTU21D;63874;47.230;39.620;2023-04-24T09:46:58;20.55;52.74
75281;HTU21D;63874;47.230;39.620;2023-04-24T09:49:27;20.24;53.27
75281;HTU21D;63874;47.230;39.620;2023-04-24T09:52:06;20.02;53.81
75281;HTU21D;63874;47.230;39.620;2023-04-24T09:54:32;19.77;54.41
75281;HTU21D;63874;47.230;39.620;2023-04-24T09:56:58;19.57;55.07
75281;HTU21D;63874;47.230;39.620;2023-04-24T09:59:28;19.39;55.50
75281;HTU21D;63874;47.230;39.620;2023-04-24T10:01:55;19.22;56.16
75281;HTU21D;63874;47.230;39.620;2023-04-24T10:04:25;19.15;56.46
75281;HTU21D;63874;47.230;39.620;2023-04-24T10:06:53;19.13;56.71
75281;HTU21D;63874;47.230;39.620;2023-04-24T10:09:21;19.05;57.03
75281;HTU21D;63874;47.230;39.620;2023-04-24T10:11:49;19.06;57.25
75281;HTU21D;63874;47.230;39.620;2023-04-24T10:14:20;19.10;57.30
75281;HTU21D;63874;47.230;39.620;2023-04-24T10:16:46;19.05;57.39
75281;HTU21D;63874;47.230;39.620;2023-04-24T10:19:14;18.97;57.55
75281;HTU21D;63874;47.230;39.620;2023-04-24T10:21:42;18.81;57.69
75281;HTU21D;63874;47.230;39.620;2023-04-24T10:24:08;18.65;58.19
75281;HTU21D;63874;47.230;39.620;2023-04-24T10:26:35;18.55;58.37
75281;HTU21D;63874;47.230;39.620;2023-04-24T10:29:05;18.46;58.73
75281;HTU21D;63874;47.230;39.620;2023-04-24T10:31:36;18.37;59.03
75281;HTU21D;63874;47.230;39.620;2023-04-24T10:34:05;18.34;59.25
75281;HTU21D;63874;47.230;39.620;2023-04-24T10:36:33;18.32;59.37
75281;HTU21D;63874;47.230;39.620;2023-04-24T10:39:02;18.29;59.36
75281;HTU21D;63874;47.230;39.620;2023-04-24T10:41:30;18.30;59.44
75281;HTU21D;63874;47.230;39.620;2023-04-24T10:44:13;18.38;59.21
75281;HTU21D;63874;47.230;39.620;2023-04-24T10:46:42;18.42;59.03
75281;HTU21D;63874;47.230;39.620;2023-04-24T10:49:08;18.46;58.50
75281;HTU21D;63874;47.230;39.620;2023-04-24T10:51:53;18.46;58.63
75281;HTU21D;63874;47.230;39.620;2023-04-24T10:54:36;18.51;58.58
75281;HTU21D;63874;47.230;39.620;2023-04-24T11:00:14;18.65;58.60
75281;HTU21D;63874;47.230;39.620;2023-04-24T11:02:41;18.68;58.46
75281;HTU21D;63874;47.230;39.620;2023-04-24T11:05:15;18.72;58.32
75281;HTU21D;63874;47.230;39.620;2023-04-24T11:08:13;18.71;58.60
75281;HTU21D;63874;47.230;39.620;2023-04-24T11:10:55;18.84;58.54
75281;HTU21D;63874;47.230;39.620;2023-04-24T11:13:22;18.93;58.38
75281;HTU21D;63874;47.230;39.620;2023-04-24T11:16:14;18.96;58.19
75281;HTU21D;63874;47.230;39.620;2023-04-24T11:18:42;19.07;58.12
75281;HTU21D;63874;47.230;39.620;2023-04-24T11:21:17;19.20;57.85
75281;HTU21D;63874;47.230;39.620;2023-04-24T11:23:45;19.37;57.42
75281;HTU21D;63874;47.230;39.620;2023-04-24T11:26:12;19.59;57.00
75281;HTU21D;63874;47.230;39.620;2023-04-24T11:28:49;19.91;56.65
75281;HTU21D;63874;47.230;39.620;2023-04-24T11:31:38;20.30;54.71
75281;HTU21D;63874;47.230;39.620;2023-04-24T11:34:11;20.58;54.70
75281;HTU21D;63874;47.230;39.620;2023-04-24T11:36:43;20.69;54.39
75281;HTU21D;63874;47.230;39.620;2023-04-24T11:39:09;20.79;54.26
75281;HTU21D;63874;47.230;39.620;2023-04-24T11:41:35;20.81;53.91
75281;HTU21D;63874;47.230;39.620;2023-04-24T11:44:02;20.72;54.08
75281;HTU21D;63874;47.230;39.620;2023-04-24T11:46:30;20.54;54.45
75281;HTU21D;63874;47.230;39.620;2023-04-24T11:48:58;20.39;54.65
75281;HTU21D;63874;47.230;39.620;2023-04-24T11:51:26;20.20;54.94
75281;HTU21D;63874;47.230;39.620;2023-04-24T11:53:53;19.98;55.43
75281;HTU21D;63874;47.230;39.620;2023-04-24T11:56:21;19.80;55.91
75281;HTU21D;63874;47.230;39.620;2023-04-24T11:58:47;19.51;56.52
75281;HTU21D;63874;47.230;39.620;2023-04-24T12:01:13;19.28;57.06
75281;HTU21D;63874;47.230;39.620;2023-04-24T12:03:40;19.07;57.72
75281;HTU21D;63874;47.230;39.620;2023-04-24T12:06:10;18.88;58.40
75281;HTU21D;63874;47.230;39.620;2023-04-24T12:08:37;18.67;58.96
75281;HTU21D;63874;47.230;39.620;2023-04-24T12:11:05;18.48;59.82
75281;HTU21D;63874;47.230;39.620;2023-04-24T12:13:34;18.19;61.54
75281;HTU21D;63874;47.230;39.620;2023-04-24T12:16:04;17.75;62.73
75281;HTU21D;63874;47.230;39.620;2023-04-24T12:18:31;17.53;63.19
75281;HTU21D;63874;47.230;39.620;2023-04-24T12:21:15;17.31;64.44
75281;HTU21D;63874;47.230;39.620;2023-04-24T12:23:43;17.08;64.61
75281;HTU21D;63874;47.230;39.620;2023-04-24T12:26:10;16.94;65.88
75281;HTU21D;63874;47.230;39.620;2023-04-24T12:28:36;16.78;66.68
75281;HTU21D;63874;47.230;39.620;2023-04-24T12:31:03;16.58;67.22
75281;HTU21D;63874;47.230;39.620;2023-04-24T12:33:33;16.40;67.95
75281;HTU21D;63874;47.230;39.620;2023-04-24T12:36:00;16.19;68.50
75281;HTU21D;63874;47.230;39.620;2023-04-24T12:38:27;15.99;69.12
75281;HTU21D;63874;47.230;39.620;2023-04-24T12:43:31;15.72;70.39
75281;HTU21D;63874;47.230;39.620;2023-04-24T12:45:57;15.63;71.13
75281;HTU21D;63874;47.230;39.620;2023-04-24T12:48:25;15.51;71.51
75281;HTU21D;63874;47.230;39.620;2023-04-24T12:50:51;15.45;72.22
75281;HTU21D;63874;47.230;39.620;2023-04-24T12:53:17;15.40;72.31
75281;HTU21D;63874;47.230;39.620;2023-04-24T12:55:43;15.39;72.96
75281;HTU21D;63874;47.230;39.620;2023-04-24T12:58:10;15.36;73.71
75281;HTU21D;63874;47.230;39.620;2023-04-24T13:00:36;15.36;74.11
75281;HTU21D;63874;47.230;39.620;2023-04-24T13:03:02;15.39;74.15
75281;HTU21D;63874;47.230;39.620;2023-04-24T13:05:28;15.43;74.39
75281;HTU21D;63874;47.230;39.620;2023-04-24T13:07:54;15.44;74.39
75281;HTU21D;63874;47.230;39.620;2023-04-24T13:10:20;15.48;74.31
75281;HTU21D;63874;47.230;39.620;2023-04-24T13:12:46;15.51;74.31
75281;HTU21D;63874;47.230;39.620;2023-04-24T13:15:12;15.53;74.15
75281;HTU21D;63874;47.230;39.620;2023-04-24T13:17:38;15.51;73.99
75281;HTU21D;63874;47.230;39.620;2023-04-24T13:20:04;15.49;73.94
75281;HTU21D;63874;47.230;39.620;2023-04-24T13:22:30;15.46;73.95
75281;HTU21D;63874;47.230;39.620;2023-04-24T13:24:56;15.45;73.88
75281;HTU21D;63874;47.230;39.620;2023-04-24T13:27:22;15.42;73.77
75281;HTU21D;63874;47.230;39.620;2023-04-24T13:29:48;15.41;73.62
75281;HTU21D;63874;47.230;39.620;2023-04-24T13:32:14;15.41;73.50
75281;HTU21D;63874;47.230;39.620;2023-04-24T13:34:40;15.44;73.44
75281;HTU21D;63874;47.230;39.620;2023-04-24T13:37:06;15.44;73.28
75281;HTU21D;63874;47.230;39.620;2023-04-24T13:39:33;15.43;73.23
75281;HTU21D;63874;47.230;39.620;2023-04-24T13:41:59;15.43;73.37
75281;HTU21D;63874;47.230;39.620;2023-04-24T13:44:26;15.41;73.42
75281;HTU21D;63874;47.230;39.620;2023-04-24T13:46:53;15.43;73.48
75281;HTU21D;63874;47.230;39.620;2023-04-24T13:49:20;15.43;73.46
75281;HTU21D;63874;47.230;39.620;2023-04-24T13:51:46;15.41;73.54
75281;HTU21D;63874;47.230;39.620;2023-04-24T13:54:12;15.40;73.55
75281;HTU21D;63874;47.230;39.620;2023-04-24T13:56:39;15.39;73.50
75281;HTU21D;63874;47.230;39.620;2023-04-24T13:59:06;15.40;73.47
75281;HTU21D;63874;47.230;39.620;2023-04-24T14:01:32;15.38;73.54
75281;HTU21D;63874;47.230;39.620;2023-04-24T14:03:57;15.37;73.57
75281;HTU21D;63874;47.230;39.620;2023-04-24T14:06:23;15.37;73.44
75281;HTU21D;63874;47.230;39.620;2023-04-24T14:08:49;15.34;73.37
75281;HTU21D;63874;47.230;39.620;2023-04-24T14:11:16;15.31;73.42
75281;HTU21D;63874;47.230;39.620;2023-04-24T14:13:42;15.24;73.54
75281;HTU21D;63874;47.230;39.620;2023-04-24T14:16:09;15.19;73.60
75281;HTU21D;63874;47.230;39.620;2023-04-24T14:18:35;15.14;73.77
75281;HTU21D;63874;47.230;39.620;2023-04-24T14:21:02;15.11;73.70
75281;HTU21D;63874;47.230;39.620;2023-04-24T14:23:28;15.06;73.83
75281;HTU21D;63874;47.230;39.620;2023-04-24T14:25:54;14.98;73.95
75281;HTU21D;63874;47.230;39.620;2023-04-24T14:28:20;14.91;74.15
75281;HTU21D;63874;47.230;39.620;2023-04-24T14:30:47;14.83;74.25
75281;HTU21D;63874;47.230;39.620;2023-04-24T14:33:13;14.80;74.48
75281;HTU21D;63874;47.230;39.620;2023-04-24T14:35:40;14.78;74.64
75281;HTU21D;63874;47.230;39.620;2023-04-24T14:38:07;14.71;74.84
75281;HTU21D;63874;47.230;39.620;2023-04-24T14:40:33;14.66;74.92
75281;HTU21D;63874;47.230;39.620;2023-04-24T14:42:59;14.62;75.16
75281;HTU21D;63874;47.230;39.620;2023-04-24T14:45:28;14.56;75.34
75281;HTU21D;63874;47.230;39.620;2023-04-24T14:47:54;14.54;75.41
75281;HTU21D;63874;47.230;39.620;2023-04-24T14:50:20;14.52;75.60
75281;HTU21D;63874;47.230;39.620;2023-04-24T14:52:46;14.45;75.63
75281;HTU21D;63874;47.230;39.620;2023-04-24T14:55:12;14.39;75.91
75281;HTU21D;63874;47.230;39.620;2023-04-24T14:57:39;14.33;76.20
75281;HTU21D;63874;47.230;39.620;2023-04-24T15:00:05;14.25;76.23
75281;HTU21D;63874;47.230;39.620;2023-04-24T15:02:34;14.18;76.42
75281;HTU21D;63874;47.230;39.620;2023-04-24T15:05:02;14.14;76.45
75281;HTU21D;63874;47.230;39.620;2023-04-24T15:07:29;14.08;76.53
75281;HTU21D;63874;47.230;39.620;2023-04-24T15:09:56;14.07;76.68
75281;HTU21D;63874;47.230;39.620;2023-04-24T15:12:22;14.04;76.79
75281;HTU21D;63874;47.230;39.620;2023-04-24T15:14:48;14.01;76.85
75281;HTU21D;63874;47.230;39.620;2023-04-24T15:17:14;13.98;76.79